Time;durP1;ratioP1;P1;durP2;ratioP2;P2;SDS_P1;SDS_P2;PMS_P1;PMS_P2;Temp;Humidity;BMP_temperature;BMP_pressure;BME280_temperature;BME280_humidity;BME280_pressure;Samples;Min_cycle;Max_cycle;Signal;HPM_P1;HPM_P2
2022/08/12 00:44:52;;;;;;;8.52;4.63;;;18.20;99.90;;;;;;5014276;28;20178;-62
2022/08/12 00:47:19;;;;;;;7.10;5.18;;;18.10;99.90;;;;;;5014072;28;20180;-61
2022/08/12 00:49:48;;;;;;;8.95;5.70;;;18.00;99.90;;;;;;5028756;28;20210;-61
2022/08/12 00:52:14;;;;;;;9.13;5.53;;;18.10;99.90;;;;;;5014415;28;20254;-62
2022/08/12 00:54:47;;;;;;;6.78;5.13;;;18.10;99.90;;;;;;5015395;28;20167;-62
2022/08/12 00:57:20;;;;;;;6.50;5.13;;;18.00;99.90;;;;;;5014757;28;20626;-63
2022/08/12 00:59:55;;;;;;;10.13;5.05;;;17.90;99.90;;;;;;4997216;28;20233;-63
2022/08/12 01:02:29;;;;;;;7.30;5.57;;;17.80;99.90;;;;;;5014885;28;20168;-64
2022/08/12 01:13:24;;;;;;;9.48;5.93;;;17.70;99.90;;;;;;4994649;28;20207;-61
2022/08/12 01:15:54;;;;;;;7.88;6.30;;;17.60;99.90;;;;;;4993911;28;20169;-61
2022/08/12 01:18:26;;;;;;;6.63;5.93;;;17.60;99.90;;;;;;4976289;28;20192;-61
2022/08/12 01:20:51;;;;;;;8.15;6.25;;;17.50;99.90;;;;;;4994807;28;20569;-61
2022/08/12 01:23:44;;;;;;;10.52;5.80;;;17.50;99.90;;;;;;4976500;28;20188;-62
2022/08/12 01:26:19;;;;;;;7.47;5.20;;;17.50;99.90;;;;;;4993921;28;20607;-61
2022/08/12 01:28:47;;;;;;;7.20;5.40;;;17.50;99.90;;;;;;4994396;28;20524;-61
2022/08/12 01:31:16;;;;;;;8.75;6.15;;;17.50;99.90;;;;;;4993689;28;20238;-61
2022/08/12 01:33:56;;;;;;;6.68;5.65;;;17.40;99.90;;;;;;4993528;28;20164;-62
2022/08/12 01:36:27;;;;;;;9.02;5.82;;;17.40;99.90;;;;;;4995754;28;20563;-61
2022/08/12 01:38:57;;;;;;;7.75;6.00;;;17.30;99.90;;;;;;5013411;28;20234;-61
2022/08/12 01:41:28;;;;;;;6.68;5.30;;;17.20;99.90;;;;;;4995771;28;20180;-62
2022/08/12 01:43:59;;;;;;;7.10;6.05;;;17.20;99.90;;;;;;5013710;28;20164;-62
2022/08/12 01:46:44;;;;;;;7.82;5.90;;;17.20;99.90;;;;;;5013196;28;20172;-62
2022/08/12 01:49:28;;;;;;;7.03;5.93;;;17.10;99.90;;;;;;4995475;28;20615;-61
2022/08/12 01:52:03;;;;;;;10.23;6.38;;;17.10;99.90;;;;;;5013462;28;20218;-61
2022/08/12 01:54:37;;;;;;;10.20;5.85;;;17.10;99.90;;;;;;5013156;28;20227;-62
2022/08/12 01:57:16;;;;;;;7.82;6.30;;;17.10;99.90;;;;;;5013128;28;20199;-62
2022/08/12 02:00:00;;;;;;;6.82;6.13;;;17.00;99.90;;;;;;5013171;28;20191;-61
2022/08/12 02:02:38;;;;;;;9.00;6.10;;;17.00;99.90;;;;;;4998661;28;20192;-62
2022/08/12 02:11:28;;;;;;;11.00;7.15;;;16.80;99.90;;;;;;5016943;28;20641;-62
2022/08/12 02:14:12;;;;;;;6.60;5.82;;;16.70;99.90;;;;;;4998954;28;20180;-62
2022/08/12 02:16:40;;;;;;;11.65;6.88;;;16.70;99.90;;;;;;5016965;28;20192;-61
2022/08/12 02:19:45;;;;;;;7.32;6.30;;;16.70;99.90;;;;;;5016292;28;20598;-61
2022/08/12 02:22:27;;;;;;;7.88;6.35;;;16.70;99.90;;;;;;4998846;28;20211;-61
2022/08/12 02:25:08;;;;;;;9.55;7.05;;;16.60;99.90;;;;;;4999181;28;20548;-62
2022/08/12 02:27:44;;;;;;;10.35;6.47;;;16.60;99.90;;;;;;5016426;28;20168;-61
2022/08/12 02:30:13;;;;;;;9.23;6.75;;;16.60;99.90;;;;;;5016577;28;20271;-62
2022/08/12 02:32:44;;;;;;;8.77;6.07;;;16.50;99.90;;;;;;5016103;28;20325;-62
2022/08/12 02:35:18;;;;;;;9.75;6.32;;;16.50;99.90;;;;;;5016022;28;20707;-61
2022/08/12 02:37:46;;;;;;;9.32;6.63;;;16.40;99.90;;;;;;5016346;28;20195;-62
2022/08/12 02:40:13;;;;;;;9.00;6.47;;;16.30;99.90;;;;;;5016167;28;20528;-62
2022/08/12 02:43:04;;;;;;;8.20;6.75;;;16.30;99.90;;;;;;5016456;28;20170;-62
2022/08/12 02:45:49;;;;;;;9.40;6.88;;;16.30;99.90;;;;;;5015806;28;20194;-61
2022/08/12 02:48:24;;;;;;;9.48;6.78;;;16.30;99.90;;;;;;5015927;28;20191;-61
2022/08/12 02:50:52;;;;;;;9.30;6.78;;;16.20;99.90;;;;;;5016016;28;20175;-61
2022/08/12 02:53:18;;;;;;;9.68;7.22;;;16.20;99.90;;;;;;5015818;28;20250;-61
2022/08/12 02:55:44;;;;;;;8.27;6.95;;;16.20;99.90;;;;;;5016170;28;20196;-61
2022/08/12 02:58:11;;;;;;;10.10;7.13;;;16.20;99.90;;;;;;5015632;28;20192;-61
2022/08/12 03:00:38;;;;;;;7.85;7.05;;;16.10;99.90;;;;;;5015594;28;20203;-62
2022/08/12 03:03:08;;;;;;;10.60;7.78;;;16.20;99.90;;;;;;5016142;28;20168;-61
2022/08/12 03:05:37;;;;;;;12.32;7.60;;;16.20;99.90;;;;;;5015943;28;20582;-61
2022/08/12 03:08:05;;;;;;;11.10;7.47;;;16.10;99.90;;;;;;5015438;28;20595;-62
2022/08/12 03:10:38;;;;;;;8.63;7.72;;;16.00;99.90;;;;;;4997942;28;20195;-61
2022/08/12 03:13:08;;;;;;;11.15;8.18;;;16.00;99.90;;;;;;5015467;28;20247;-61
2022/08/12 03:15:34;;;;;;;10.15;7.45;;;15.90;99.90;;;;;;5015408;28;20184;-61
2022/08/12 03:18:30;;;;;;;9.50;7.60;;;15.90;99.90;;;;;;5030574;28;20175;-61
2022/08/12 03:20:58;;;;;;;9.75;7.47;;;15.90;99.90;;;;;;5003209;28;20187;-61
2022/08/12 03:23:25;;;;;;;9.43;7.60;;;15.90;99.90;;;;;;5015243;28;20647;-62
2022/08/12 03:25:54;;;;;;;9.05;7.57;;;15.90;99.90;;;;;;5015764;28;20180;-62
2022/08/12 03:31:07;;;;;;;10.75;8.23;;;15.80;99.90;;;;;;5015613;28;20282;-61
2022/08/12 03:33:39;;;;;;;11.80;8.75;;;15.70;99.90;;;;;;4997140;28;20180;-61
2022/08/12 03:36:07;;;;;;;12.50;8.20;;;15.70;99.90;;;;;;5015044;28;20183;-61
2022/08/12 03:38:41;;;;;;;11.30;8.05;;;15.60;99.90;;;;;;5030086;28;20200;-62
2022/08/12 03:41:34;;;;;;;9.55;8.20;;;15.60;99.90;;;;;;5015474;28;20155;-62
2022/08/12 04:00:54;;;;;;;11.18;8.18;;;15.50;99.90;;;;;;5015203;28;20210;-61
2022/08/12 04:06:08;;;;;;;10.32;8.82;;;15.40;99.90;;;;;;5014735;28;20680;-62
2022/08/12 04:08:35;;;;;;;13.00;8.93;;;15.40;99.90;;;;;;5014278;28;20242;-61
2022/08/12 04:13:47;;;;;;;10.70;8.30;;;15.40;99.90;;;;;;5014975;28;20163;-62
2022/08/12 04:16:15;;;;;;;9.82;8.20;;;15.40;99.90;;;;;;4996910;28;20182;-61
2022/08/12 04:18:42;;;;;;;12.75;8.40;;;15.40;99.90;;;;;;5014613;28;20202;-62
2022/08/12 04:21:09;;;;;;;8.77;7.80;;;15.40;99.90;;;;;;5014370;28;20179;-61
2022/08/12 04:23:37;;;;;;;10.30;7.70;;;15.30;99.90;;;;;;5015054;28;20451;-62
2022/08/12 04:26:04;;;;;;;9.70;8.40;;;15.10;99.90;;;;;;5014269;28;20179;-62
2022/08/12 04:28:30;;;;;;;9.73;8.35;;;15.00;99.90;;;;;;5014246;28;20203;-62
2022/08/12 04:30:56;;;;;;;9.70;7.85;;;14.90;99.90;;;;;;4996548;28;20278;-61
2022/08/12 04:33:25;;;;;;;10.75;8.52;;;14.80;99.90;;;;;;5014134;28;20157;-61
2022/08/12 04:35:53;;;;;;;11.98;8.25;;;14.70;99.90;;;;;;5029155;28;20177;-62
2022/08/12 04:38:20;;;;;;;9.45;8.30;;;14.80;99.90;;;;;;5013805;28;20230;-62
2022/08/12 04:40:45;;;;;;;12.40;8.73;;;14.80;99.90;;;;;;5014024;28;20239;-63
2022/08/12 04:43:11;;;;;;;10.77;8.73;;;14.90;99.90;;;;;;5015702;28;20230;-63
2022/08/12 04:45:39;;;;;;;10.43;8.40;;;14.90;99.90;;;;;;5014271;28;20291;-63
2022/08/12 04:48:05;;;;;;;10.77;8.38;;;14.90;99.90;;;;;;5014108;28;20172;-63
2022/08/12 04:50:32;;;;;;;11.70;9.20;;;14.90;99.90;;;;;;5013923;28;20156;-63
2022/08/12 04:53:02;;;;;;;9.95;8.40;;;14.90;99.90;;;;;;5013825;28;20200;-63
2022/08/12 04:55:28;;;;;;;11.88;9.07;;;15.00;99.90;;;;;;4996593;28;20190;-61
2022/08/12 04:57:55;;;;;;;10.82;8.85;;;15.00;99.90;;;;;;5014057;28;20165;-62
2022/08/12 05:00:21;;;;;;;11.73;9.13;;;15.00;99.90;;;;;;5013451;28;20571;-62
2022/08/12 05:02:47;;;;;;;10.25;8.75;;;15.00;99.90;;;;;;5013521;28;20180;-62
2022/08/12 05:05:19;;;;;;;14.05;9.60;;;15.10;99.90;;;;;;5013203;28;20184;-61
2022/08/12 05:07:48;;;;;;;12.38;9.98;;;15.20;99.90;;;;;;5013459;28;20204;-61
2022/08/12 05:10:15;;;;;;;11.90;9.02;;;15.20;99.90;;;;;;5013812;28;20501;-61
2022/08/12 05:12:46;;;;;;;11.02;8.32;;;15.30;99.90;;;;;;5013433;28;20208;-61
2022/08/12 05:15:12;;;;;;;10.25;8.35;;;15.40;99.90;;;;;;5013363;28;20211;-61
2022/08/12 05:17:40;;;;;;;11.10;8.82;;;15.50;99.90;;;;;;5013305;28;20171;-61
2022/08/12 05:20:08;;;;;;;12.80;9.13;;;15.50;99.90;;;;;;4995677;28;20584;-61
2022/08/12 05:22:35;;;;;;;11.75;8.48;;;15.60;99.90;;;;;;5013262;28;20306;-61
2022/08/12 05:25:00;;;;;;;11.77;9.32;;;15.70;99.90;;;;;;5013574;28;20183;-61
2022/08/12 05:27:26;;;;;;;12.10;8.82;;;15.70;99.90;;;;;;5013486;28;20176;-62
2022/08/12 05:29:52;;;;;;;9.30;8.02;;;15.80;99.90;;;;;;5013144;28;20195;-61
2022/08/12 05:32:19;;;;;;;10.85;8.95;;;15.90;99.90;;;;;;5013183;28;20211;-62
2022/08/12 05:34:49;;;;;;;11.35;9.18;;;16.00;99.90;;;;;;5013198;28;20172;-61
2022/08/12 05:37:15;;;;;;;14.55;9.70;;;16.00;99.90;;;;;;4999211;28;20294;-62
2022/08/12 05:39:41;;;;;;;12.18;9.73;;;16.00;99.90;;;;;;5017346;28;20688;-62
2022/08/12 05:42:10;;;;;;;11.45;9.05;;;16.10;99.90;;;;;;4999438;28;20188;-61
2022/08/12 05:44:36;;;;;;;15.80;9.55;;;16.20;99.90;;;;;;5017321;28;20581;-61
2022/08/12 05:47:03;;;;;;;16.67;10.75;;;16.30;99.90;;;;;;5017339;28;20530;-61
2022/08/12 05:49:29;;;;;;;12.50;9.82;;;16.30;99.90;;;;;;5016812;28;20694;-61
2022/08/12 05:51:56;;;;;;;13.73;9.88;;;16.40;99.90;;;;;;4999238;28;20208;-62
2022/08/12 05:54:22;;;;;;;13.20;10.45;;;16.50;99.90;;;;;;5017349;28;20230;-62
2022/08/12 05:56:48;;;;;;;14.35;9.77;;;16.60;99.90;;;;;;5017067;28;20195;-62
2022/08/12 05:59:14;;;;;;;15.02;11.30;;;16.70;99.90;;;;;;5016994;28;20259;-62
2022/08/12 06:01:40;;;;;;;13.88;9.48;;;16.70;99.90;;;;;;5016951;28;20202;-63
2022/08/12 06:04:08;;;;;;;12.30;10.02;;;16.80;99.90;;;;;;5016717;28;20181;-62
2022/08/12 06:06:40;;;;;;;17.00;10.85;;;16.90;99.90;;;;;;5016722;28;20724;-61
2022/08/12 06:09:08;;;;;;;13.98;9.40;;;17.00;99.90;;;;;;5016759;28;20207;-63
2022/08/12 06:11:34;;;;;;;13.77;10.73;;;17.10;99.90;;;;;;5016729;28;20337;-61
2022/08/12 06:14:00;;;;;;;14.07;9.75;;;17.20;99.90;;;;;;5016650;28;20212;-61
2022/08/12 06:16:26;;;;;;;13.07;10.20;;;17.20;99.90;;;;;;5016710;28;20222;-62
2022/08/12 06:18:53;;;;;;;17.02;10.68;;;17.30;99.90;;;;;;4998717;28;20200;-62
2022/08/12 06:21:20;;;;;;;14.45;10.27;;;17.40;99.90;;;;;;5016513;28;20172;-61
2022/08/12 06:23:47;;;;;;;13.23;9.00;;;17.50;99.90;;;;;;4998807;28;20258;-61
2022/08/12 06:26:15;;;;;;;12.25;8.88;;;17.60;99.90;;;;;;5016450;28;20180;-62
2022/08/12 06:28:49;;;;;;;13.70;10.07;;;17.60;99.90;;;;;;5016286;28;20601;-62
2022/08/12 06:31:18;;;;;;;14.57;10.20;;;17.80;99.90;;;;;;5016428;28;20191;-63
2022/08/12 06:33:48;;;;;;;13.95;8.63;;;17.90;99.90;;;;;;5016181;28;20275;-66
2022/08/12 06:36:16;;;;;;;13.13;9.63;;;18.00;99.90;;;;;;5016329;28;20260;-62
2022/08/12 06:38:44;;;;;;;14.70;9.80;;;18.10;99.90;;;;;;4998652;28;20207;-63
2022/08/12 06:43:55;;;;;;;11.10;7.90;;;18.20;99.90;;;;;;5016522;28;20171;-61
2022/08/12 06:46:25;;;;;;;12.00;8.30;;;18.40;99.90;;;;;;4998248;28;20207;-62
2022/08/12 06:48:57;;;;;;;9.57;7.82;;;18.50;99.90;;;;;;4998214;28;20707;-62
2022/08/12 06:51:25;;;;;;;12.93;8.70;;;18.60;99.90;;;;;;5015914;28;20188;-61
2022/08/12 06:53:51;;;;;;;10.63;9.02;;;18.70;99.90;;;;;;5015993;28;20263;-62
2022/08/12 06:56:17;;;;;;;11.60;8.65;;;18.80;99.90;;;;;;5015729;28;20658;-62
2022/08/12 06:58:43;;;;;;;11.63;7.78;;;18.90;99.90;;;;;;4998218;28;20282;-61
2022/08/12 07:01:09;;;;;;;11.48;7.57;;;19.00;99.90;;;;;;4998279;28;20563;-61
2022/08/12 07:03:36;;;;;;;9.75;6.95;;;19.10;99.90;;;;;;5015817;28;20172;-61
2022/08/12 07:06:10;;;;;;;12.95;8.13;;;19.20;99.90;;;;;;5015562;28;20172;-61
2022/08/12 07:08:37;;;;;;;9.73;6.72;;;19.40;99.90;;;;;;5011234;28;20200;-62
2022/08/12 07:11:05;;;;;;;11.82;7.30;;;19.50;99.90;;;;;;4996178;28;20663;-61
2022/08/12 07:13:41;;;;;;;9.15;6.55;;;19.60;99.90;;;;;;4996568;28;20181;-62
2022/08/12 07:16:12;;;;;;;9.80;7.10;;;19.70;99.90;;;;;;4996623;28;20180;-62
2022/08/12 07:18:39;;;;;;;10.27;7.35;;;19.80;99.90;;;;;;4996293;28;20188;-62
2022/08/12 07:21:06;;;;;;;11.43;7.10;;;19.90;99.90;;;;;;4995854;28;20716;-61
2022/08/12 07:23:34;;;;;;;9.05;6.63;;;20.00;99.90;;;;;;4995915;28;20180;-62
2022/08/12 07:26:04;;;;;;;10.13;6.90;;;20.20;99.90;;;;;;4995920;28;20179;-62
2022/08/12 07:28:34;;;;;;;9.65;6.60;;;20.30;99.90;;;;;;4978321;28;20200;-62
2022/08/12 07:31:03;;;;;;;11.73;6.55;;;20.40;99.90;;;;;;4996123;28;20176;-61
2022/08/12 07:33:30;;;;;;;10.85;7.05;;;20.50;99.90;;;;;;4978213;28;20181;-62
2022/08/12 07:36:01;;;;;;;8.57;6.05;;;20.60;99.90;;;;;;4995468;28;20227;-61
2022/08/12 07:38:33;;;;;;;8.55;5.50;;;20.70;99.90;;;;;;5014398;28;20222;-62
2022/08/12 07:41:06;;;;;;;9.00;5.82;;;20.90;99.90;;;;;;5030361;28;20728;-62
2022/08/12 07:43:35;;;;;;;11.98;5.85;;;21.00;99.90;;;;;;5015163;28;20207;-61
2022/08/12 07:46:03;;;;;;;8.40;4.75;;;21.10;99.90;;;;;;5015019;28;20187;-62
2022/08/12 07:48:35;;;;;;;11.15;5.60;;;21.20;99.90;;;;;;5014931;28;20675;-62
2022/08/12 07:51:01;;;;;;;6.57;5.00;;;21.30;99.90;;;;;;5014757;28;20168;-62
2022/08/12 07:53:27;;;;;;;8.05;5.32;;;21.50;99.90;;;;;;4997564;28;20195;-62
2022/08/12 07:55:53;;;;;;;13.48;4.90;;;21.60;99.90;;;;;;4997689;28;20198;-62
2022/08/12 07:58:18;;;;;;;9.77;5.28;;;21.80;99.90;;;;;;5014446;28;20199;-62
2022/08/12 08:00:44;;;;;;;10.55;4.97;;;21.90;99.90;;;;;;5014729;28;20660;-62
2022/08/12 08:03:12;;;;;;;5.60;4.55;;;22.00;99.90;;;;;;5014745;28;20243;-62
2022/08/12 08:05:48;;;;;;;8.60;4.75;;;22.20;99.90;;;;;;4997764;28;20191;-64
2022/08/12 08:08:32;;;;;;;11.63;5.50;;;22.30;99.90;;;;;;5015458;28;20238;-65
2022/08/12 08:13:45;;;;;;;8.98;4.88;;;22.60;99.90;;;;;;5014765;28;20167;-65
2022/08/12 08:16:14;;;;;;;11.18;4.43;;;22.70;99.90;;;;;;5014402;28;20172;-65
2022/08/12 08:18:40;;;;;;;9.40;4.50;;;22.80;99.90;;;;;;5014282;28;20195;-65
2022/08/12 08:21:07;;;;;;;4.38;3.65;;;23.00;99.90;;;;;;5014219;28;20262;-65
2022/08/12 08:24:18;;;;;;;6.05;3.35;;;23.10;99.90;;;;;;5014335;28;20178;-65
2022/08/12 08:26:21;;;;;;;5.15;3.50;;;23.30;99.90;;;;;;5000884;28;20688;-65
2022/08/12 08:28:47;;;;;;;4.47;3.55;;;23.40;99.90;;;;;;4996610;28;20196;-65
2022/08/12 08:31:13;;;;;;;5.00;3.40;;;23.60;99.90;;;;;;5014205;28;20209;-65
2022/08/12 08:33:40;;;;;;;6.82;3.35;;;23.70;99.90;;;;;;5014218;28;20210;-65
2022/08/12 08:36:08;;;;;;;7.05;3.65;;;23.80;99.90;;;;;;5013963;28;20664;-65
2022/08/12 08:38:34;;;;;;;7.32;3.30;;;24.00;99.90;;;;;;4996418;28;20195;-65
2022/08/12 08:43:46;;;;;;;4.05;3.08;;;24.20;99.90;;;;;;5014656;28;20556;-65
2022/08/12 08:46:13;;;;;;;5.05;3.08;;;24.50;99.90;;;;;;5013973;28;20172;-65
2022/08/12 08:48:39;;;;;;;7.90;2.90;;;24.60;99.90;;;;;;4996234;28;20206;-65
2022/08/12 08:51:06;;;;;;;6.13;3.00;;;24.80;99.90;;;;;;5013507;28;20180;-65
2022/08/12 08:53:33;;;;;;;5.10;2.55;;;25.00;99.90;;;;;;5013854;28;20249;-65
2022/08/12 08:55:59;;;;;;;3.67;2.72;;;25.10;99.90;;;;;;5013694;28;20187;-65
2022/08/12 08:58:25;;;;;;;4.25;2.63;;;25.30;99.90;;;;;;5013744;28;20270;-65
2022/08/12 09:00:51;;;;;;;5.60;2.45;;;25.40;99.90;;;;;;5014301;28;20314;-65
2022/08/12 09:03:18;;;;;;;5.13;2.42;;;25.50;99.90;;;;;;5013713;28;20176;-65
2022/08/12 09:05:44;;;;;;;8.52;2.83;;;25.70;99.90;;;;;;4995806;28;20190;-65
2022/08/12 09:08:10;;;;;;;4.72;2.70;;;26.00;99.90;;;;;;4995890;28;20204;-65
2022/08/12 09:10:37;;;;;;;3.03;2.53;;;26.20;99.90;;;;;;5013878;28;20625;-62
2022/08/12 09:15:48;;;;;;;5.22;2.33;;;26.50;99.90;;;;;;5013638;28;20179;-62
2022/08/12 09:18:17;;;;;;;3.40;2.22;;;26.70;99.90;;;;;;5013685;28;20245;-62
2022/08/12 09:20:43;;;;;;;2.92;2.63;;;26.80;99.90;;;;;;4995615;28;20183;-62
2022/08/12 09:23:11;;;;;;;4.25;2.35;;;27.00;99.90;;;;;;5013718;28;20184;-62
2022/08/12 09:25:38;;;;;;;3.33;2.55;;;27.20;99.90;;;;;;5013784;28;20517;-63
2022/08/12 09:28:07;;;;;;;3.10;2.10;;;27.30;99.90;;;;;;5013413;28;20186;-62
2022/08/12 09:30:33;;;;;;;7.03;2.67;;;27.50;99.90;;;;;;5013490;28;20670;-62
2022/08/12 09:33:00;;;;;;;4.13;2.80;;;27.60;99.90;;;;;;5013353;28;20312;-62
2022/08/12 09:35:32;;;;;;;5.25;2.25;;;27.70;99.90;;;;;;5013145;28;20641;-62
2022/08/12 09:38:00;;;;;;;4.93;2.85;;;27.80;99.90;;;;;;5013457;28;20176;-62
2022/08/12 09:40:28;;;;;;;5.35;2.55;;;27.90;99.90;;;;;;5013838;28;20178;-62
2022/08/12 09:45:45;;;;;;;2.70;2.20;;;27.90;99.90;;;;;;5013855;28;20729;-62
2022/08/12 09:48:15;;;;;;;2.65;2.38;;;28.10;99.90;;;;;;5013388;28;20668;-62
2022/08/12 09:50:43;;;;;;;4.38;2.65;;;28.20;99.90;;;;;;5012962;28;20655;-62
2022/08/12 09:53:14;;;;;;;4.65;2.40;;;28.30;99.90;;;;;;5013422;28;20207;-62
2022/08/12 09:55:51;;;;;;;7.93;2.67;;;28.40;99.90;;;;;;5013393;28;20267;-62
2022/08/12 09:58:18;;;;;;;7.93;2.85;;;28.50;99.90;;;;;;5013349;28;20200;-62
2022/08/12 10:00:47;;;;;;;5.53;2.50;;;28.60;99.90;;;;;;5028295;28;20180;-62
2022/08/12 10:03:15;;;;;;;5.47;2.75;;;28.60;99.90;;;;;;5013522;28;20692;-62
2022/08/12 10:05:45;;;;;;;4.88;2.63;;;28.70;99.90;;;;;;5012982;28;20204;-62
2022/08/12 10:08:13;;;;;;;4.72;2.92;;;28.70;99.90;;;;;;5013189;28;20203;-62
2022/08/12 10:13:42;;;;;;;4.22;2.70;;;28.80;99.90;;;;;;5013557;28;20190;-62
2022/08/12 10:16:19;;;;;;;4.32;2.90;;;28.90;99.90;;;;;;5013609;28;20512;-62
2022/08/12 10:18:49;;;;;;;4.88;2.65;;;28.90;99.90;;;;;;5013086;28;20728;-62
2022/08/12 10:21:20;;;;;;;7.65;2.90;;;29.00;99.90;;;;;;5012821;28;20178;-62
2022/08/12 10:23:47;;;;;;;3.10;2.20;;;29.00;99.90;;;;;;5016402;28;20226;-62
2022/08/12 10:31:45;;;;;;;2.70;2.42;;;29.00;99.90;;;;;;5016527;28;20221;-62
2022/08/12 10:34:12;;;;;;;3.15;2.40;;;28.90;99.90;;;;;;5016566;28;20168;-62
2022/08/12 10:36:39;;;;;;;3.67;2.17;;;28.90;99.90;;;;;;5015996;28;20176;-62
2022/08/12 10:39:07;;;;;;;5.78;2.47;;;29.00;99.90;;;;;;5016219;28;20196;-62
2022/08/12 10:44:18;;;;;;;5.07;2.40;;;29.00;99.90;;;;;;5016460;28;20811;-62
2022/08/12 10:46:47;;;;;;;4.18;2.47;;;29.00;99.90;;;;;;5016088;28;20246;-62
2022/08/12 10:49:12;;;;;;;3.83;2.80;;;29.00;99.90;;;;;;5015951;28;20207;-62
2022/08/12 10:51:39;;;;;;;2.97;2.20;;;29.10;99.90;;;;;;5015731;28;20199;-62
2022/08/12 10:54:05;;;;;;;4.38;2.50;;;29.20;99.90;;;;;;5016023;28;20179;-62
2022/08/12 10:56:31;;;;;;;6.47;2.47;;;29.30;99.90;;;;;;5016032;28;20262;-62
2022/08/12 10:58:57;;;;;;;2.42;2.20;;;29.30;99.90;;;;;;4998157;28;20334;-62
2022/08/12 11:01:23;;;;;;;3.58;2.13;;;29.40;99.90;;;;;;5016199;28;20187;-62
2022/08/12 11:03:50;;;;;;;2.40;2.20;;;29.40;99.90;;;;;;5016121;28;20172;-62
2022/08/12 11:06:20;;;;;;;3.95;2.30;;;29.40;99.90;;;;;;5015501;28;20652;-62
2022/08/12 11:08:47;;;;;;;5.43;2.42;;;29.50;99.90;;;;;;5015953;28;20207;-62
2022/08/12 11:11:16;;;;;;;3.33;2.10;;;29.60;99.90;;;;;;5015958;28;20187;-62
2022/08/12 11:13:45;;;;;;;2.67;2.00;;;29.60;99.90;;;;;;5015666;28;20171;-63
2022/08/12 11:16:12;;;;;;;4.57;2.40;;;29.70;99.90;;;;;;5015839;28;20172;-62
2022/08/12 11:18:39;;;;;;;3.08;2.13;;;29.80;99.90;;;;;;5015851;28;20202;-62
2022/08/12 11:21:05;;;;;;;2.42;2.13;;;29.90;99.90;;;;;;5015726;28;20179;-62
2022/08/12 11:23:31;;;;;;;5.45;2.38;;;30.00;99.90;;;;;;5016069;28;20187;-62
2022/08/12 11:25:56;;;;;;;4.43;2.50;;;30.10;99.90;;;;;;4998105;28;20229;-62
2022/08/12 11:28:22;;;;;;;3.25;2.28;;;30.20;99.90;;;;;;5015775;28;20649;-62
2022/08/12 11:30:49;;;;;;;2.13;1.85;;;30.30;99.90;;;;;;5015369;28;20178;-62
2022/08/12 11:33:14;;;;;;;2.72;2.00;;;30.50;99.90;;;;;;5014310;28;20200;-62
2022/08/12 11:35:41;;;;;;;6.75;1.83;;;30.70;99.90;;;;;;5015154;28;20178;-63
2022/08/12 11:38:07;;;;;;;2.13;1.88;;;31.00;99.90;;;;;;5015181;28;20552;-62
2022/08/12 11:40:32;;;;;;;3.47;2.50;;;31.00;97.70;;;;;;4997700;28;20263;-62
2022/08/12 11:42:59;;;;;;;5.20;2.00;;;31.00;99.90;;;;;;5015105;28;20268;-62
2022/08/12 11:45:26;;;;;;;3.65;2.30;;;31.20;99.90;;;;;;5015045;28;20176;-62
2022/08/12 11:47:54;;;;;;;2.85;1.92;;;31.30;98.30;;;;;;5015531;28;20176;-63
2022/08/12 11:50:21;;;;;;;3.40;2.00;;;31.40;97.40;;;;;;4997102;28;20612;-62
2022/08/12 11:52:48;;;;;;;3.38;2.10;;;31.50;99.20;;;;;;5014928;28;20282;-62
2022/08/12 11:55:14;;;;;;;3.55;1.80;;;31.60;97.30;;;;;;5014981;28;20238;-63
2022/08/12 11:57:54;;;;;;;3.22;2.00;;;31.70;96.50;;;;;;5015389;28;20172;-62
2022/08/12 12:00:21;;;;;;;2.20;2.00;;;31.70;96.10;;;;;;5014793;28;20172;-62
2022/08/12 12:02:48;;;;;;;2.33;2.10;;;31.80;98.50;;;;;;5014659;28;20179;-62
2022/08/12 12:05:18;;;;;;;3.50;1.88;;;32.00;95.90;;;;;;5014434;28;20180;-62
2022/08/12 12:07:45;;;;;;;2.63;1.75;;;32.00;95.60;;;;;;5014676;28;20188;-62
2022/08/12 12:10:13;;;;;;;7.40;2.00;;;32.20;98.00;;;;;;5014877;28;20209;-62
2022/08/12 12:12:40;;;;;;;2.85;1.85;;;32.40;97.50;;;;;;5014616;28;20333;-62
2022/08/12 12:15:07;;;;;;;2.97;2.03;;;32.50;95.00;;;;;;5014913;28;20318;-62
2022/08/12 12:17:37;;;;;;;2.90;1.92;;;32.60;95.40;;;;;;5014667;28;20172;-62
2022/08/12 12:20:07;;;;;;;4.82;1.85;;;32.70;95.70;;;;;;5014390;28;20187;-62
2022/08/12 12:22:33;;;;;;;2.55;1.65;;;32.70;94.50;;;;;;4996753;28;20633;-62
2022/08/12 12:24:59;;;;;;;2.03;1.70;;;32.80;95.10;;;;;;5014324;28;20180;-62
2022/08/12 12:27:24;;;;;;;3.13;2.20;;;33.00;95.30;;;;;;5014796;28;20171;-63
2022/08/12 12:29:50;;;;;;;2.08;1.48;;;32.90;92.70;;;;;;4996485;28;20203;-63
2022/08/12 12:32:16;;;;;;;2.28;1.88;;;33.00;94.90;;;;;;5014174;28;20571;-62
2022/08/12 12:34:42;;;;;;;2.03;1.83;;;33.00;91.60;;;;;;5014318;28;20171;-62
2022/08/12 12:37:12;;;;;;;1.98;1.80;;;32.90;92.00;;;;;;5014259;28;20180;-62
2022/08/12 12:39:39;;;;;;;2.15;1.95;;;33.00;93.00;;;;;;4997675;28;20281;-62
2022/08/12 12:42:05;;;;;;;2.53;1.83;;;33.20;93.00;;;;;;5014466;28;20589;-68
2022/08/12 12:44:30;;;;;;;3.63;2.08;;;33.50;93.30;;;;;;5014036;28;20191;-65
2022/08/12 12:46:56;;;;;;;2.30;1.77;;;33.50;91.60;;;;;;5014196;28;20641;-65
2022/08/12 12:49:22;;;;;;;3.90;1.80;;;33.50;92.90;;;;;;5013804;28;20200;-65
2022/08/12 12:51:48;;;;;;;4.50;1.92;;;33.70;91.90;;;;;;5013754;28;20203;-65
2022/08/12 12:54:14;;;;;;;2.55;2.15;;;33.80;91.70;;;;;;5013837;28;20168;-65
2022/08/12 12:56:41;;;;;;;2.30;1.83;;;33.70;91.90;;;;;;5013702;28;20270;-68
2022/08/12 12:59:07;;;;;;;3.70;2.20;;;34.00;92.60;;;;;;5014024;28;20261;-65
2022/08/12 13:01:37;;;;;;;4.22;2.10;;;34.00;90.60;;;;;;5013789;28;20206;-65
2022/08/12 13:04:07;;;;;;;2.25;1.70;;;34.10;92.00;;;;;;5013715;28;20554;-66
2022/08/12 13:06:33;;;;;;;2.10;1.85;;;34.40;92.10;;;;;;4995816;28;20190;-66
2022/08/12 13:09:00;;;;;;;2.75;2.20;;;34.50;89.70;;;;;;5014509;28;20199;-65
2022/08/12 13:11:28;;;;;;;4.00;1.83;;;34.60;89.60;;;;;;5015487;28;20312;-65
2022/08/12 13:13:55;;;;;;;1.83;1.60;;;34.80;91.40;;;;;;5015312;28;20171;-65
2022/08/12 13:16:21;;;;;;;4.90;1.83;;;35.00;90.00;;;;;;5015347;28;20168;-65
2022/08/12 13:18:48;;;;;;;3.47;2.00;;;34.80;88.80;;;;;;5014884;28;20195;-62
2022/08/12 13:21:16;;;;;;;3.10;2.63;;;34.90;90.40;;;;;;5014554;28;20180;-62
2022/08/12 13:23:47;;;;;;;3.45;1.70;;;34.80;84.00;;;;;;5014303;28;20538;-62
2022/08/12 13:26:16;;;;;;;3.97;1.80;;;34.90;86.90;;;;;;5029667;28;20653;-65
2022/08/12 13:28:48;;;;;;;2.40;2.00;;;34.70;87.10;;;;;;4997451;28;20192;-65
2022/08/12 13:31:16;;;;;;;3.58;2.00;;;34.60;84.40;;;;;;5030523;28;20184;-64
2022/08/12 13:33:42;;;;;;;2.45;1.90;;;34.40;84.50;;;;;;5016478;28;20239;-65
2022/08/12 13:36:09;;;;;;;3.47;1.60;;;34.50;86.00;;;;;;5015639;28;20215;-65
2022/08/12 13:38:38;;;;;;;2.33;1.85;;;34.60;86.60;;;;;;5015162;28;20198;-65
2022/08/12 13:41:10;;;;;;;3.47;2.05;;;34.50;83.10;;;;;;5014160;28;20172;-65
2022/08/12 13:43:35;;;;;;;5.10;2.22;;;34.80;86.90;;;;;;5029279;28;20226;-65
2022/08/12 13:46:01;;;;;;;3.63;1.80;;;35.00;84.80;;;;;;5013668;28;20161;-65
2022/08/12 13:48:29;;;;;;;3.13;2.03;;;35.00;82.20;;;;;;5013691;28;20215;-65
2022/08/12 13:50:56;;;;;;;1.83;1.60;;;35.00;83.80;;;;;;4995763;28;20231;-65
2022/08/12 13:53:22;;;;;;;4.05;2.10;;;35.20;84.50;;;;;;5013796;28;20316;-65
2022/08/12 13:55:50;;;;;;;3.42;1.98;;;35.20;83.30;;;;;;5014219;28;20219;-65
2022/08/12 13:58:18;;;;;;;3.47;2.20;;;35.00;81.90;;;;;;5016537;28;20203;-65
2022/08/12 14:00:49;;;;;;;3.67;2.10;;;34.90;81.90;;;;;;4999996;28;20649;-65
2022/08/12 14:03:22;;;;;;;4.82;1.65;;;34.70;81.70;;;;;;5017982;28;20602;-65
2022/08/12 14:05:48;;;;;;;2.20;1.85;;;34.70;84.40;;;;;;5017631;28;20653;-65
2022/08/12 14:08:15;;;;;;;2.13;1.92;;;34.70;84.40;;;;;;5032095;28;20222;-65
2022/08/12 14:10:52;;;;;;;2.50;1.77;;;34.90;82.80;;;;;;5016945;28;20175;-65
2022/08/12 14:13:19;;;;;;;4.80;1.92;;;35.10;82.90;;;;;;5017342;28;20200;-63
2022/08/12 14:15:49;;;;;;;1.95;1.75;;;35.50;83.20;;;;;;5019150;28;20485;-63
2022/08/12 14:18:20;;;;;;;7.45;2.30;;;35.60;81.00;;;;;;5000216;28;20203;-66
2022/08/12 14:20:56;;;;;;;1.88;1.40;;;35.40;75.50;;;;;;5016996;28;20190;-63
2022/08/12 14:23:23;;;;;;;2.05;1.67;;;35.30;77.30;;;;;;5016626;28;20192;-63
2022/08/12 14:25:50;;;;;;;5.07;2.00;;;35.20;78.10;;;;;;5016545;28;20539;-63
2022/08/12 14:28:18;;;;;;;3.72;1.88;;;35.20;78.60;;;;;;5016730;28;20199;-63
2022/08/12 14:30:52;;;;;;;3.35;1.80;;;35.20;77.50;;;;;;5016735;28;20176;-63
2022/08/12 14:33:22;;;;;;;3.28;1.90;;;35.20;77.20;;;;;;5016415;28;20199;-63
2022/08/12 14:35:49;;;;;;;3.30;1.85;;;34.90;74.90;;;;;;5016086;28;20172;-63
2022/08/12 14:38:29;;;;;;;3.85;2.00;;;34.90;79.80;;;;;;5016142;28;20254;-63
2022/08/12 14:40:58;;;;;;;2.20;1.77;;;35.20;77.30;;;;;;5016301;28;20179;-63